Bernardsville, New Jersey
Current Conditions -  °F | °C
As of 3:53 AM on Tuesday 21 Oct 2014 (Local Time) from KSMQ Reporting Station
Overcast Overcast  
Wind Chill: 46°   Ceiling: 6000
Heat Index: 46°   Visibility: 10mi
Dew Point: 42°   Wind: 3mph
Humidity: 86%   Direction: 310°NW
Pressure: 29.9"   Gusts: NA
Location:  40.72°N, 74.57°W
Report Text: KSMQ 210753Z AUTO 31003KT 10SM BKN060 OVC090 08/06 A2990 RMK AO2 SLP125 T00780056
Loading
Personal Weather Stations






























Interactive Weather Map
Tropical Storm Tracking
New forecast layout! Learn more

10-Day Weather Forecast

Advertisements
Track Severe Weather on mobile